Aviation Digital Data Service (ADDS)

Output produced by METARs form (2106 UTC 24 March 2019)
found at http://www.aviationweather.gov/metar/data/
 
Forecast for: EBBR (BRUSSELS NATIONA, BE)
Text: TAF EBBR 241710Z 2418/2524 27005KT CAVOK
Forecast period: 1800 UTC 24 March 2019 to 0800 UTC 25 March 2019
Forecast type: FROM: standard forecast or significant change
Winds: from the W (270 degrees) at 6 MPH (5 knots; 2.6 m/s)
Visibility: 6 or more miles 10+ km)
Ceiling: unknown
Clouds: missing
Weather: NSW  (no significant weather)
Text: BECMG 2508/2510 33015KT
Forecast period: 0800 UTC 25 March 2019 to 0000 UTC 26 March 2019
Forecast type: BECOMING: Conditions expected to become as follows by 1000 UTC 25 March 2019
Winds: from the NNW (330 degrees) at 17 MPH (15 knots; 7.7 m/s)
Visibility: 6 or more miles 10+ km)
Ceiling: unknown
Clouds: missing
Weather: NSW  (no significant weather)
Text: TEMPO 2510/2517 33015G25KT
Forecast period: 1000 to 1700 UTC 25 March 2019
Forecast type: TEMPORARY: The following changes expected for less than half the time period
Winds: from the NNW (330 degrees) at 17 MPH (15 knots; 7.7 m/s)
gusting to 29 MPH (25 knots; 12.9 m/s)
Visibility: missing
Ceiling: unknown
Clouds: missing
Weather: no significant weather forecast for this period